Time;durP1;ratioP1;P1;durP2;ratioP2;P2;SDS_P1;SDS_P2;PMS_P1;PMS_P2;Temp;Humidity;BMP_temperature;BMP_pressure;BME280_temperature;BME280_humidity;BME280_pressure;Samples;Min_cycle;Max_cycle;Signal;HPM_P1;HPM_P2
2023/01/05 00:04:38;;;;;;;5.60;3.00;;;22.00;62.20;;;;;;210246;1317;26635;-62
2023/01/05 00:09:42;;;;;;;6.20;2.90;;;22.00;62.40;;;;;;209883;1305;22799;-58
2023/01/05 00:22:29;;;;;;;10.50;3.60;;;22.00;62.50;;;;;;209671;1305;25490;-59
2023/01/05 00:25:52;;;;;;;7.70;3.10;;;21.90;62.50;;;;;;209848;1311;22585;-59
2023/01/05 00:30:56;;;;;;;4.50;2.80;;;21.90;62.40;;;;;;209812;1298;22481;-57
2023/01/05 00:36:00;;;;;;;4.60;3.00;;;21.80;62.30;;;;;;209922;1310;22509;-59
2023/01/05 00:41:04;;;;;;;5.70;2.90;;;21.80;62.80;;;;;;209892;1301;22610;-59
2023/01/05 00:46:08;;;;;;;4.70;2.20;;;21.80;62.40;;;;;;210128;1305;25321;-59
2023/01/05 00:51:12;;;;;;;5.30;2.80;;;21.80;62.40;;;;;;209790;1309;23866;-57
2023/01/05 00:56:16;;;;;;;5.90;2.90;;;21.70;62.30;;;;;;209891;1306;22496;-58
2023/01/05 01:01:21;;;;;;;3.80;2.50;;;21.70;62.30;;;;;;209773;1301;22944;-59
2023/01/05 01:06:25;;;;;;;4.60;2.40;;;21.70;61.90;;;;;;209826;1312;22498;-57
2023/01/05 01:11:29;;;;;;;7.40;3.00;;;21.70;62.20;;;;;;210017;1314;22496;-59
2023/01/05 01:16:34;;;;;;;5.70;2.60;;;21.70;62.20;;;;;;210169;1298;22537;-57
2023/01/05 01:21:38;;;;;;;5.00;2.60;;;21.60;62.20;;;;;;209995;1306;22501;-59
2023/01/05 01:26:42;;;;;;;4.80;2.60;;;21.60;62.10;;;;;;210098;1305;23861;-59
2023/01/05 01:31:48;;;;;;;5.70;2.60;;;21.60;62.20;;;;;;209847;1303;24393;-58
2023/01/05 01:36:54;;;;;;;4.10;2.10;;;21.60;62.30;;;;;;209929;1302;25139;-58
2023/01/05 01:42:03;;;;;;;4.40;2.30;;;21.50;62.50;;;;;;209950;1304;24285;-59
2023/01/05 01:47:10;;;;;;;5.20;2.60;;;21.50;62.10;;;;;;209953;1298;24487;-59
2023/01/05 01:52:15;;;;;;;2.60;1.90;;;21.50;62.20;;;;;;210236;1305;24433;-59
2023/01/05 01:57:20;;;;;;;2.70;1.80;;;21.50;62.20;;;;;;210108;1312;24078;-59
2023/01/05 02:02:26;;;;;;;3.50;2.30;;;21.50;62.10;;;;;;209710;1304;22497;-58
2023/01/05 02:07:38;;;;;;;7.80;2.60;;;21.40;62.60;;;;;;209972;1298;26512;-58
2023/01/05 02:12:48;;;;;;;4.00;1.80;;;21.40;62.30;;;;;;210041;1307;22602;-58
2023/01/05 02:18:27;;;;;;;5.00;2.00;;;21.40;62.80;;;;;;210003;1306;22520;-59
2023/01/05 02:24:01;;;;;;;4.30;2.20;;;21.40;62.30;;;;;;210081;1312;23461;-58
2023/01/05 02:29:44;;;;;;;2.80;1.90;;;21.30;62.20;;;;;;209986;1317;22674;-58
2023/01/05 02:34:48;;;;;;;3.10;1.60;;;21.30;62.30;;;;;;210476;1295;22488;-58
2023/01/05 02:40:18;;;;;;;4.50;2.00;;;21.30;62.80;;;;;;210343;1302;22901;-58
2023/01/05 02:45:23;;;;;;;2.80;2.00;;;21.20;62.50;;;;;;210491;1302;22630;-58
2023/01/05 02:50:41;;;;;;;3.90;1.70;;;21.30;62.90;;;;;;210306;1312;24515;-57
2023/01/05 02:56:03;;;;;;;3.10;1.50;;;21.20;62.50;;;;;;210789;1304;22516;-58
2023/01/05 03:01:17;;;;;;;2.00;1.40;;;21.20;62.50;;;;;;210521;1307;24258;-57
2023/01/05 03:06:32;;;;;;;2.80;1.50;;;21.20;62.40;;;;;;210261;1302;22489;-57
2023/01/05 03:17:10;;;;;;;;;;;21.50;62.20;;;;;;210223;1302;22526;-58
2023/01/05 03:38:52;;;;;;;2.80;1.80;;;21.80;61.90;;;;;;210474;1312;22741;-58
2023/01/05 03:43:56;;;;;;;3.20;1.50;;;21.90;62.00;;;;;;210346;1312;22502;-58
2023/01/05 03:49:01;;;;;;;3.30;1.90;;;22.00;61.70;;;;;;210502;1302;26644;-58
2023/01/05 03:54:05;;;;;;;1.70;1.20;;;22.00;61.40;;;;;;210327;1302;22810;-58
2023/01/05 03:59:11;;;;;;;3.70;1.60;;;22.10;61.30;;;;;;210326;1310;22536;-59
2023/01/05 04:04:15;;;;;;;2.10;1.30;;;22.20;61.60;;;;;;210320;1295;23872;-56
2023/01/05 04:09:19;;;;;;;2.50;1.20;;;22.30;61.00;;;;;;210702;1301;22676;-58
2023/01/05 04:14:24;;;;;;;1.90;1.40;;;22.30;60.80;;;;;;210770;1298;22616;-58
2023/01/05 04:19:28;;;;;;;2.30;1.20;;;22.40;60.50;;;;;;210664;1294;25690;-56
2023/01/05 04:24:33;;;;;;;2.00;1.00;;;22.40;60.40;;;;;;210664;1323;22491;-56
2023/01/05 04:29:38;;;;;;;2.30;1.20;;;22.50;60.30;;;;;;210292;1302;22537;-58
2023/01/05 04:34:42;;;;;;;2.30;1.40;;;22.50;60.50;;;;;;210216;1295;22475;-59
2023/01/05 04:39:46;;;;;;;1.70;1.20;;;22.50;60.10;;;;;;210481;1298;23916;-58
2023/01/05 04:44:51;;;;;;;1.60;1.30;;;22.50;60.10;;;;;;210459;1298;22499;-58
2023/01/05 04:49:56;;;;;;;1.40;1.30;;;22.50;60.00;;;;;;210341;1302;22540;-59
2023/01/05 04:55:00;;;;;;;1.20;1.00;;;22.40;60.40;;;;;;210634;1310;23882;-57
2023/01/05 05:00:07;;;;;;;2.30;1.10;;;22.40;60.80;;;;;;210381;1308;22632;-58
2023/01/05 05:05:12;;;;;;;2.30;1.20;;;22.40;60.30;;;;;;210344;1302;25228;-57
2023/01/05 05:10:16;;;;;;;1.60;1.10;;;22.30;60.20;;;;;;210579;1317;22579;-58
2023/01/05 05:15:22;;;;;;;1.30;1.20;;;22.30;60.20;;;;;;210482;1308;24229;-58
2023/01/05 05:20:26;;;;;;;1.60;0.90;;;22.30;60.20;;;;;;210503;1295;24285;-57
2023/01/05 05:25:31;;;;;;;1.30;1.20;;;22.20;60.20;;;;;;210690;1302;25569;-58
2023/01/05 05:30:38;;;;;;;0.90;0.80;;;22.10;60.30;;;;;;210582;1302;22504;-58
2023/01/05 05:35:42;;;;;;;3.10;1.10;;;22.10;60.30;;;;;;210542;1311;24233;-58
2023/01/05 05:40:50;;;;;;;1.90;1.20;;;22.10;60.40;;;;;;210702;1302;24060;-58
2023/01/05 05:45:54;;;;;;;1.40;1.10;;;22.10;60.50;;;;;;210415;1302;22510;-58
2023/01/05 05:50:59;;;;;;;1.20;1.00;;;22.00;60.50;;;;;;210650;1302;23932;-56
2023/01/05 05:56:03;;;;;;;1.20;0.90;;;22.00;60.60;;;;;;210836;1316;25426;-58
2023/01/05 06:01:08;;;;;;;1.10;0.90;;;22.00;60.60;;;;;;210731;1299;22478;-57
2023/01/05 06:06:12;;;;;;;2.60;1.50;;;21.90;60.60;;;;;;210492;1307;22489;-58
2023/01/05 06:11:16;;;;;;;1.20;0.70;;;21.90;61.10;;;;;;210521;1301;22487;-59
2023/01/05 06:16:20;;;;;;;1.70;0.90;;;21.90;60.70;;;;;;210543;1308;24308;-58
2023/01/05 06:21:24;;;;;;;0.80;0.70;;;21.80;60.80;;;;;;210437;1295;22852;-58
2023/01/05 06:26:28;;;;;;;1.50;0.90;;;21.80;60.80;;;;;;210516;1302;22610;-58
2023/01/05 06:31:32;;;;;;;3.20;1.00;;;21.80;61.00;;;;;;210466;1318;22571;-58
2023/01/05 06:36:36;;;;;;;1.40;1.00;;;21.70;60.90;;;;;;210365;1308;22582;-58
2023/01/05 06:41:40;;;;;;;1.80;1.00;;;21.70;61.00;;;;;;210367;1301;22493;-58
2023/01/05 06:46:45;;;;;;;2.60;1.10;;;21.70;61.30;;;;;;210337;1295;23905;-59
2023/01/05 06:51:49;;;;;;;1.80;1.30;;;21.60;61.80;;;;;;210258;1294;22490;-59
2023/01/05 06:56:53;;;;;;;1.70;1.20;;;21.60;61.90;;;;;;210520;1303;24333;-59
2023/01/05 07:01:57;;;;;;;2.70;0.70;;;21.60;61.90;;;;;;210315;1301;22720;-59
2023/01/05 07:07:01;;;;;;;5.10;1.00;;;21.60;62.10;;;;;;210348;1302;22480;-59
2023/01/05 07:12:05;;;;;;;3.30;1.00;;;21.60;62.60;;;;;;212505;1317;22572;-59
2023/01/05 07:17:11;;;;;;;4.50;1.10;;;21.50;62.60;;;;;;210336;1294;23866;-59
2023/01/05 07:22:15;;;;;;;2.90;1.20;;;21.50;62.70;;;;;;210514;1302;24359;-60
2023/01/05 07:27:19;;;;;;;10.30;1.20;;;21.50;62.80;;;;;;210383;1298;25181;-58
2023/01/05 07:32:23;;;;;;;3.10;0.80;;;21.40;63.00;;;;;;210428;1302;23918;-63
2023/01/05 07:37:28;;;;;;;2.50;1.10;;;21.40;63.20;;;;;;210277;1302;25455;-60
2023/01/05 07:42:32;;;;;;;8.20;1.00;;;21.40;63.40;;;;;;210420;1300;26744;-59
2023/01/05 07:47:38;;;;;;;3.00;0.80;;;21.40;63.40;;;;;;210350;1308;22891;-59
2023/01/05 07:52:42;;;;;;;7.60;1.20;;;21.40;63.40;;;;;;210223;1301;174603;-60
2023/01/05 07:57:47;;;;;;;10.20;1.90;;;21.40;63.60;;;;;;210483;1298;22511;-60
2023/01/05 08:02:51;;;;;;;4.70;1.00;;;21.40;63.80;;;;;;210206;1302;23921;-60
2023/01/05 08:07:55;;;;;;;2.30;1.30;;;21.30;63.60;;;;;;209769;1302;24313;-61
2023/01/05 08:18:27;;;;;;;3.30;1.10;;;21.30;63.20;;;;;;210298;1298;24432;-61
2023/01/05 08:23:32;;;;;;;2.00;0.90;;;21.30;63.20;;;;;;210608;1301;25152;-61
2023/01/05 08:28:36;;;;;;;1.80;0.90;;;21.20;63.10;;;;;;210388;1308;22506;-61
2023/01/05 08:33:41;;;;;;;3.30;0.80;;;21.20;62.90;;;;;;210406;1313;22507;-61
2023/01/05 08:38:50;;;;;;;1.50;0.70;;;21.20;62.90;;;;;;210329;1295;22493;-61
2023/01/05 08:43:56;;;;;;;4.40;0.90;;;21.20;62.80;;;;;;210324;1300;22493;-61
2023/01/05 08:49:03;;;;;;;1.10;1.00;;;21.20;62.80;;;;;;210552;1298;24237;-61
2023/01/05 08:54:07;;;;;;;1.80;0.90;;;21.10;62.80;;;;;;210555;1298;25608;-61
2023/01/05 08:59:12;;;;;;;3.30;0.80;;;21.10;62.60;;;;;;210526;1294;23956;-60
2023/01/05 09:04:16;;;;;;;4.40;1.10;;;21.10;62.60;;;;;;210543;1296;25351;-62
2023/01/05 09:09:23;;;;;;;1.90;0.90;;;21.10;62.50;;;;;;210482;1292;25460;-60
2023/01/05 09:14:27;;;;;;;1.50;1.10;;;21.10;62.30;;;;;;210555;1299;22895;-63
2023/01/05 09:19:31;;;;;;;5.30;0.70;;;21.30;62.30;;;;;;210530;1304;23621;-60
2023/01/05 09:24:35;;;;;;;7.80;1.20;;;21.40;61.80;;;;;;210524;1291;22492;-61
2023/01/05 09:29:39;;;;;;;1.20;1.10;;;21.40;62.10;;;;;;210857;1308;23881;-60
2023/01/05 09:34:43;;;;;;;5.20;0.80;;;21.50;61.70;;;;;;210276;1299;23875;-63
2023/01/05 09:39:47;;;;;;;4.60;2.20;;;21.50;61.90;;;;;;216839;1308;24225;-61
2023/01/05 09:45:03;;;;;;;1.30;0.80;;;21.60;61.90;;;;;;217185;1308;22543;-61
2023/01/05 09:50:18;;;;;;;4.40;1.30;;;21.60;61.60;;;;;;211381;1314;22715;-61
2023/01/05 09:55:25;;;;;;;3.00;1.10;;;21.70;61.70;;;;;;210580;1292;22837;-61
2023/01/05 10:00:30;;;;;;;1.60;0.90;;;21.80;61.30;;;;;;210646;1298;22855;-62
2023/01/05 10:05:39;;;;;;;3.00;0.90;;;21.80;61.20;;;;;;210778;1291;22527;-62
2023/01/05 10:16:16;;;;;;;2.00;0.90;;;21.90;61.20;;;;;;210455;1307;22724;-60
2023/01/05 10:21:21;;;;;;;2.00;0.70;;;22.00;60.70;;;;;;210543;1291;23112;-62
2023/01/05 10:26:43;;;;;;;1.30;0.70;;;22.00;60.50;;;;;;210470;1299;24071;-63
2023/01/05 10:32:25;;;;;;;1.10;0.90;;;22.10;60.50;;;;;;210563;1301;23126;-61
2023/01/05 10:37:35;;;;;;;1.30;1.00;;;22.20;60.40;;;;;;210486;1298;23882;-61
2023/01/05 10:43:11;;;;;;;1.30;0.80;;;22.20;60.70;;;;;;210652;1312;24996;-61
2023/01/05 10:48:22;;;;;;;1.30;0.80;;;22.30;60.00;;;;;;210757;1308;25342;-61
2023/01/05 10:53:28;;;;;;;1.20;0.70;;;22.30;59.90;;;;;;210748;1299;22601;-63
2023/01/05 10:58:35;;;;;;;2.00;0.80;;;22.40;60.30;;;;;;210577;1299;23895;-62
2023/01/05 11:03:41;;;;;;;1.30;0.80;;;22.40;59.40;;;;;;210658;1301;25508;-61
2023/01/05 11:09:12;;;;;;;2.30;1.70;;;22.50;59.20;;;;;;210697;1308;24503;-62
2023/01/05 11:14:26;;;;;;;0.70;0.60;;;22.50;59.10;;;;;;210571;1298;22520;-62
2023/01/05 11:19:34;;;;;;;1.40;0.80;;;22.50;58.90;;;;;;210750;1315;22872;-61
2023/01/05 11:24:38;;;;;;;1.10;0.80;;;22.50;58.90;;;;;;210764;1299;22595;-61
2023/01/05 11:29:42;;;;;;;1.70;0.50;;;22.60;59.40;;;;;;210642;1301;23004;-62
2023/01/05 11:34:50;;;;;;;0.70;0.70;;;22.50;59.30;;;;;;210524;1299;22622;-63
2023/01/05 11:39:59;;;;;;;1.10;0.70;;;22.50;58.90;;;;;;210680;1298;24405;-62
2023/01/05 11:45:16;;;;;;;2.30;0.60;;;22.50;58.90;;;;;;210543;1299;25365;-62
2023/01/05 11:50:30;;;;;;;1.30;1.10;;;22.40;59.10;;;;;;210661;1307;25640;-62
2023/01/05 11:55:37;;;;;;;1.20;0.70;;;22.40;59.10;;;;;;210662;1299;22516;-61
2023/01/05 12:01:43;;;;;;;1.30;0.70;;;22.40;59.50;;;;;;210782;1314;22520;-62
2023/01/05 12:07:06;;;;;;;2.40;0.50;;;22.50;59.40;;;;;;212064;1299;22691;-61
2023/01/05 12:12:38;;;;;;;0.70;0.50;;;22.50;59.70;;;;;;210648;1299;22460;-61
2023/01/05 12:18:07;;;;;;;0.70;0.60;;;22.50;59.60;;;;;;210751;1297;24451;-62
2023/01/05 12:23:27;;;;;;;2.90;0.70;;;22.60;59.30;;;;;;210380;1299;24061;-62
2023/01/05 12:28:52;;;;;;;1.20;0.80;;;22.50;59.30;;;;;;210728;1300;22629;-62
2023/01/05 12:34:46;;;;;;;0.90;0.70;;;22.40;59.60;;;;;;210629;1309;22757;-60
2023/01/05 12:39:56;;;;;;;1.50;1.00;;;22.40;59.30;;;;;;210505;1306;22527;-61
2023/01/05 12:45:18;;;;;;;1.00;0.90;;;22.50;59.30;;;;;;210663;1298;24270;-62
2023/01/05 12:50:42;;;;;;;1.10;0.80;;;22.50;59.20;;;;;;210736;1298;22644;-62
2023/01/05 12:55:51;;;;;;;1.70;0.90;;;22.50;59.10;;;;;;210653;1305;22516;-62
2023/01/05 13:00:56;;;;;;;1.60;0.70;;;22.40;59.20;;;;;;210655;1299;23172;-61
2023/01/05 13:06:07;;;;;;;1.10;0.90;;;22.40;59.40;;;;;;210661;1303;22504;-61
2023/01/05 13:11:35;;;;;;;1.30;0.80;;;22.30;59.60;;;;;;210797;1299;23947;-61
2023/01/05 13:16:41;;;;;;;1.80;0.80;;;22.30;59.60;;;;;;210564;1310;23637;-60
2023/01/05 13:21:47;;;;;;;0.90;0.50;;;22.20;59.60;;;;;;210798;1302;24406;-61
2023/01/05 13:26:51;;;;;;;1.40;0.80;;;22.20;59.60;;;;;;210209;1308;25561;-61
2023/01/05 13:32:13;;;;;;;1.00;0.80;;;22.20;59.60;;;;;;210526;1308;22683;-61
2023/01/05 13:37:38;;;;;;;2.70;0.60;;;22.10;59.70;;;;;;210334;1299;22624;-62
2023/01/05 13:42:45;;;;;;;0.80;0.60;;;22.10;59.70;;;;;;210457;1298;22576;-61
2023/01/05 13:48:06;;;;;;;0.80;0.50;;;22.10;59.80;;;;;;210524;1299;25414;-61
2023/01/05 13:53:19;;;;;;;4.80;1.10;;;22.00;59.60;;;;;;210741;1311;23333;-61
2023/01/05 13:58:35;;;;;;;1.50;0.70;;;22.00;59.90;;;;;;210485;1297;22522;-61
2023/01/05 14:03:47;;;;;;;3.80;0.70;;;21.90;60.10;;;;;;210455;1299;22493;-62
2023/01/05 14:08:57;;;;;;;2.60;0.70;;;21.90;60.40;;;;;;210581;1297;22753;-62
2023/01/05 14:14:10;;;;;;;1.60;0.70;;;21.90;60.00;;;;;;210493;1298;24285;-61
2023/01/05 14:19:32;;;;;;;0.70;0.50;;;21.90;60.00;;;;;;210331;1308;24097;-61
2023/01/05 14:24:46;;;;;;;1.00;0.70;;;21.80;60.40;;;;;;210303;1299;22508;-61
2023/01/05 14:29:50;;;;;;;2.10;0.50;;;21.80;60.60;;;;;;210589;1297;25823;-62
2023/01/05 14:35:20;;;;;;;1.10;0.60;;;21.70;60.50;;;;;;210298;1308;22691;-61
2023/01/05 14:40:27;;;;;;;0.70;0.70;;;21.70;60.70;;;;;;210573;1299;24021;-62
2023/01/05 14:45:35;;;;;;;1.30;1.00;;;21.70;60.80;;;;;;210387;1309;22667;-61
2023/01/05 14:50:41;;;;;;;5.90;4.60;;;21.60;61.90;;;;;;210622;1299;24371;-61
2023/01/05 14:55:51;;;;;;;3.50;2.80;;;21.60;63.20;;;;;;210573;1299;22659;-59
2023/01/05 15:00:59;;;;;;;2.40;2.20;;;21.60;63.80;;;;;;210288;1299;22494;-62
2023/01/05 15:06:20;;;;;;;1.70;1.60;;;21.50;63.10;;;;;;218054;1314;22127;-62
2023/01/05 15:11:34;;;;;;;2.90;2.30;;;21.50;62.80;;;;;;215277;1309;25626;-62
2023/01/05 15:16:53;;;;;;;1.70;1.60;;;21.50;62.50;;;;;;210450;1299;23034;-59
2023/01/05 15:22:06;;;;;;;2.40;1.60;;;21.40;62.30;;;;;;210498;1299;22535;-60
2023/01/05 15:28:05;;;;;;;1.60;1.40;;;21.40;62.20;;;;;;210315;1302;22499;-61
2023/01/05 15:33:28;;;;;;;1.80;1.70;;;21.40;62.10;;;;;;210605;1304;22506;-61
2023/01/05 15:38:44;;;;;;;1.90;1.30;;;21.40;62.40;;;;;;210487;1299;22515;-65
2023/01/05 15:43:49;;;;;;;1.80;1.60;;;21.30;61.90;;;;;;210616;1323;22572;-61
2023/01/05 15:48:53;;;;;;;1.60;1.30;;;21.30;62.20;;;;;;210827;1298;24960;-61
2023/01/05 15:54:02;;;;;;;1.60;1.10;;;21.30;61.70;;;;;;210586;1298;25304;-59
2023/01/05 15:59:25;;;;;;;1.40;1.00;;;21.20;61.70;;;;;;210497;1299;24317;-62
2023/01/05 16:04:29;;;;;;;1.80;1.10;;;21.20;61.50;;;;;;210621;1299;22554;-61
2023/01/05 16:09:38;;;;;;;2.50;1.40;;;21.20;61.90;;;;;;210665;1299;22483;-58
2023/01/05 16:14:45;;;;;;;8.50;1.40;;;21.10;61.50;;;;;;210208;1297;23915;-64
2023/01/05 22:01:28;;;;;;;46.30;41.60;;;21.50;71.80;;;;;;210974;1298;22504;-56
2023/01/05 22:06:32;;;;;;;45.90;40.80;;;21.40;71.60;;;;;;212059;1291;24282;-57
2023/01/05 22:11:36;;;;;;;41.40;37.00;;;21.40;71.40;;;;;;210687;1299;24299;-59
2023/01/05 22:16:40;;;;;;;44.30;39.80;;;21.40;71.40;;;;;;210611;1298;24302;-59
2023/01/05 22:21:45;;;;;;;38.70;34.70;;;21.40;71.40;;;;;;210808;1304;22511;-60
2023/01/05 22:26:49;;;;;;;40.00;35.70;;;21.40;71.40;;;;;;210923;1298;25684;-59
2023/01/05 22:31:53;;;;;;;42.30;37.80;;;21.30;71.20;;;;;;210699;1299;22633;-60
2023/01/05 22:36:58;;;;;;;41.80;37.60;;;21.30;71.20;;;;;;210765;1303;22527;-59
2023/01/05 22:42:02;;;;;;;41.10;37.00;;;21.30;71.30;;;;;;210533;1291;22546;-60
2023/01/05 22:47:06;;;;;;;38.00;33.60;;;21.30;71.90;;;;;;213045;1292;23871;-59
2023/01/05 22:52:10;;;;;;;38.90;34.70;;;21.30;71.10;;;;;;211173;1299;22876;-59
2023/01/05 22:57:15;;;;;;;36.10;32.60;;;21.30;71.10;;;;;;211194;1292;22528;-59
2023/01/05 23:02:19;;;;;;;36.20;32.60;;;21.20;71.30;;;;;;214634;1297;22504;-58
2023/01/05 23:07:23;;;;;;;37.00;33.20;;;21.20;71.70;;;;;;210781;1292;24952;-59
2023/01/05 23:12:27;;;;;;;38.90;34.90;;;21.20;71.70;;;;;;210589;1309;22492;-60
2023/01/05 23:17:31;;;;;;;36.40;32.60;;;21.20;71.30;;;;;;212880;1312;22518;-59
2023/01/05 23:22:36;;;;;;;34.20;30.90;;;21.20;71.30;;;;;;210678;1299;23704;-57
2023/01/05 23:27:40;;;;;;;34.60;31.20;;;21.20;71.30;;;;;;210774;1299;22491;-56
2023/01/05 23:32:44;;;;;;;33.60;30.00;;;21.20;70.80;;;;;;210688;1292;24298;-58
2023/01/05 23:37:49;;;;;;;33.30;30.10;;;21.10;71.00;;;;;;210825;1299;22645;-59
2023/01/05 23:42:53;;;;;;;32.80;29.50;;;21.10;70.70;;;;;;210756;1312;22508;-59
2023/01/05 23:47:58;;;;;;;32.80;29.50;;;21.10;71.00;;;;;;210796;1299;26190;-59
2023/01/05 23:53:03;;;;;;;26.00;23.30;;;21.10;70.50;;;;;;210852;1299;24285;-57
2023/01/05 23:58:08;;;;;;;32.30;28.90;;;21.10;70.40;;;;;;211030;1304;22884;-58
